createdAt,value
2022-12-03T00:00:07.467Z,99841.00
2022-12-03T00:01:46.279Z,99840.00
2022-12-03T00:03:20.977Z,99841.00
2022-12-03T00:04:54.740Z,99836.00
2022-12-03T00:06:32.897Z,99835.00
2022-12-03T00:08:07.626Z,99836.00
2022-12-03T00:09:40.846Z,99836.00
2022-12-03T00:11:14.004Z,99838.00
2022-12-03T00:12:47.186Z,99841.00
2022-12-03T00:14:20.319Z,99838.00
2022-12-03T00:15:53.674Z,99830.00
2022-12-03T00:17:26.849Z,99836.00
2022-12-03T00:19:01.319Z,99839.00
2022-12-03T00:20:35.859Z,99841.00
2022-12-03T00:22:08.319Z,99843.00
2022-12-03T00:23:42.516Z,99838.00
2022-12-03T00:25:16.009Z,99833.00
2022-12-03T00:26:48.169Z,99838.00
2022-12-03T00:28:21.409Z,99831.00
2022-12-03T00:29:53.651Z,99830.00
2022-12-03T00:31:26.970Z,99829.00
2022-12-03T00:33:00.220Z,99828.00
2022-12-03T00:34:36.002Z,99829.00
2022-12-03T00:36:10.035Z,99824.00
2022-12-03T00:37:43.583Z,99818.00
2022-12-03T00:39:16.707Z,99827.00
2022-12-03T00:40:49.890Z,99829.00
2022-12-03T00:42:23.086Z,99826.00
2022-12-03T00:43:57.675Z,99831.00
2022-12-03T00:45:30.262Z,99827.00
2022-12-03T00:47:03.743Z,99833.00
2022-12-03T00:48:37.321Z,99824.00
2022-12-03T00:50:12.983Z,99819.00
2022-12-03T00:51:47.141Z,99821.00
2022-12-03T00:53:20.290Z,99809.00
2022-12-03T00:54:53.869Z,99822.00
2022-12-03T00:56:27.245Z,99825.00
2022-12-03T00:58:00.545Z,99818.00
2022-12-03T00:59:33.896Z,99826.00
2022-12-03T01:01:07.438Z,99818.00
2022-12-03T01:02:40.878Z,99818.00
2022-12-03T01:04:14.290Z,99824.00
2022-12-03T01:05:48.851Z,99824.00
2022-12-03T01:07:22.014Z,99821.00
2022-12-03T01:08:55.186Z,99826.00
2022-12-03T01:10:29.404Z,99829.00
2022-12-03T01:12:01.821Z,99807.00
2022-12-03T01:13:34.991Z,99811.00
2022-12-03T01:15:10.463Z,99818.00
2022-12-03T01:16:43.970Z,99807.00
2022-12-03T01:18:17.157Z,99824.00
2022-12-03T01:19:52.434Z,99833.00
2022-12-03T01:21:26.228Z,99836.00
2022-12-03T01:22:59.451Z,99824.00
2022-12-03T01:24:32.721Z,99827.00
2022-12-03T01:26:05.427Z,99828.00
2022-12-03T01:27:38.667Z,99820.00
2022-12-03T01:29:11.176Z,99831.00
2022-12-03T01:30:58.250Z,99823.00
2022-12-03T01:32:31.505Z,99826.00
2022-12-03T01:34:04.051Z,99826.00
2022-12-03T01:35:37.171Z,99827.00
2022-12-03T01:37:11.794Z,99822.00
2022-12-03T01:38:45.090Z,99826.00
2022-12-03T01:40:22.218Z,99827.00
2022-12-03T01:41:56.530Z,99826.00
2022-12-03T01:43:29.899Z,99826.00
2022-12-03T01:45:05.442Z,99826.00
2022-12-03T01:46:41.495Z,99829.00
2022-12-03T01:48:17.068Z,99828.00
2022-12-03T01:49:55.992Z,99822.00
2022-12-03T01:51:29.443Z,99826.00
2022-12-03T01:53:05.021Z,99826.00
2022-12-03T01:54:42.169Z,99823.00
2022-12-03T01:56:17.808Z,99826.00
2022-12-03T01:57:54.799Z,99823.00
2022-12-03T01:59:35.427Z,99810.00
2022-12-03T02:01:13.814Z,99809.00
2022-12-03T02:02:50.654Z,99813.00
2022-12-03T02:04:24.903Z,99817.00
2022-12-03T02:05:58.160Z,99807.00
2022-12-03T02:07:34.633Z,99810.00
2022-12-03T02:09:10.686Z,99806.00
2022-12-03T02:10:43.895Z,99813.00
2022-12-03T02:12:22.283Z,99813.00
2022-12-03T02:14:01.457Z,99813.00
2022-12-03T02:15:35.525Z,99813.00
2022-12-03T02:17:09.026Z,99799.00
2022-12-03T02:18:43.018Z,99807.00
2022-12-03T02:20:17.165Z,99806.00
2022-12-03T02:22:00.671Z,99805.00
2022-12-03T02:23:44.269Z,99823.00
2022-12-03T02:25:22.249Z,99812.00
2022-12-03T02:26:55.514Z,99810.00
2022-12-03T02:28:30.377Z,99810.00
2022-12-03T02:30:04.337Z,99818.00
2022-12-03T02:31:37.691Z,99818.00
2022-12-03T02:33:11.153Z,99811.00
2022-12-03T02:34:46.144Z,99805.00
2022-12-03T02:36:19.585Z,99807.00
2022-12-03T02:37:59.217Z,99801.00
2022-12-03T02:39:34.574Z,99805.00
2022-12-03T02:41:35.047Z,99810.00
2022-12-03T02:43:07.534Z,99798.00
2022-12-03T02:44:40.035Z,99806.00
2022-12-03T02:46:13.305Z,99802.00
2022-12-03T02:47:49.915Z,99803.00
2022-12-03T02:49:23.163Z,99802.00
2022-12-03T02:51:01.973Z,99801.00
2022-12-03T02:52:35.712Z,99806.00
2022-12-03T02:54:09.007Z,99802.00
2022-12-03T02:55:43.342Z,99799.00
2022-12-03T02:57:18.492Z,99799.00
2022-12-03T02:58:57.741Z,99797.00
2022-12-03T03:00:31.875Z,99789.00
2022-12-03T03:02:05.458Z,99792.00
2022-12-03T03:03:39.985Z,99795.00
2022-12-03T03:05:14.487Z,99791.00
2022-12-03T03:06:47.695Z,99790.00
2022-12-03T03:08:21.478Z,99783.00
2022-12-03T03:09:54.803Z,99791.00
2022-12-03T03:11:28.435Z,99788.00
2022-12-03T03:13:07.794Z,99784.00
2022-12-03T03:14:41.208Z,99786.00
2022-12-03T03:16:14.788Z,99783.00
2022-12-03T03:17:47.018Z,99790.00
2022-12-03T03:19:21.033Z,99788.00
2022-12-03T03:20:54.658Z,99785.00
2022-12-03T03:22:34.290Z,99791.00
2022-12-03T03:24:08.614Z,99791.00
2022-12-03T03:25:46.522Z,99797.00
2022-12-03T03:27:19.710Z,99795.00
2022-12-03T03:28:54.258Z,99790.00
2022-12-03T03:30:28.115Z,99794.00
2022-12-03T03:32:04.101Z,99795.00
2022-12-03T03:33:38.095Z,99786.00
2022-12-03T03:35:13.953Z,99784.00
2022-12-03T03:36:47.867Z,99789.00
2022-12-03T03:38:23.347Z,99790.00
2022-12-03T03:39:56.817Z,99788.00
2022-12-03T03:41:31.007Z,99794.00
2022-12-03T03:43:04.158Z,99790.00
2022-12-03T03:44:39.197Z,99799.00
2022-12-03T03:46:12.270Z,99796.00
2022-12-03T03:47:46.331Z,99791.00
2022-12-03T03:49:20.710Z,99790.00
2022-12-03T03:50:53.588Z,99799.00
2022-12-03T03:52:27.207Z,99787.00
2022-12-03T03:54:01.120Z,99783.00
2022-12-03T03:55:35.485Z,99782.00
2022-12-03T03:57:08.874Z,99786.00
2022-12-03T03:58:43.479Z,99778.00
2022-12-03T04:00:18.953Z,99775.00
2022-12-03T04:01:52.836Z,99780.00
2022-12-03T04:03:26.133Z,99771.00
2022-12-03T04:04:59.527Z,99769.00
2022-12-03T04:06:32.717Z,99780.00
2022-12-03T04:08:06.150Z,99780.00
2022-12-03T04:09:39.513Z,99770.00
2022-12-03T04:11:30.388Z,99775.00
2022-12-03T04:13:03.761Z,99764.00
2022-12-03T04:14:37.046Z,99785.00
2022-12-03T04:16:10.683Z,99779.00
2022-12-03T04:17:43.914Z,99789.00
2022-12-03T04:19:16.277Z,99771.00
2022-12-03T04:20:49.611Z,99781.00
2022-12-03T04:22:45.692Z,99783.00
2022-12-03T04:24:17.933Z,99776.00
2022-12-03T04:26:08.847Z,99767.00
2022-12-03T04:27:59.746Z,99786.00
2022-12-03T04:29:32.974Z,99776.00
2022-12-03T04:31:25.777Z,99770.00
2022-12-03T04:33:18.019Z,99776.00
2022-12-03T04:35:09.085Z,99776.00
2022-12-03T04:36:42.419Z,99764.00
2022-12-03T04:38:17.843Z,99767.00
2022-12-03T04:39:51.032Z,99772.00
2022-12-03T04:41:23.256Z,99762.00
2022-12-03T04:42:56.500Z,99754.00
2022-12-03T04:44:36.312Z,99767.00
2022-12-03T04:46:09.787Z,99759.00
2022-12-03T04:47:42.966Z,99763.00
2022-12-03T04:49:16.634Z,99764.00
2022-12-03T04:50:50.043Z,99760.00
2022-12-03T04:52:23.247Z,99757.00
2022-12-03T04:53:55.473Z,99754.00
2022-12-03T04:55:28.613Z,99750.00
2022-12-03T04:57:02.201Z,99744.00
2022-12-03T04:58:36.526Z,99743.00
2022-12-03T05:00:11.545Z,99754.00
2022-12-03T05:01:44.756Z,99741.00
2022-12-03T05:03:18.074Z,99753.00
2022-12-03T05:04:52.966Z,99744.00
2022-12-03T05:06:26.208Z,99750.00
2022-12-03T05:07:59.484Z,99749.00
2022-12-03T05:09:32.935Z,99743.00
2022-12-03T05:11:06.262Z,99746.00
2022-12-03T05:12:39.775Z,99748.00
2022-12-03T05:14:13.246Z,99744.00
2022-12-03T05:15:46.342Z,99739.00
2022-12-03T05:17:19.501Z,99752.00
2022-12-03T05:18:52.047Z,99747.00
2022-12-03T05:20:51.526Z,99741.00
2022-12-03T05:22:25.663Z,99739.00
2022-12-03T05:23:59.014Z,99743.00
2022-12-03T05:25:31.380Z,99740.00
2022-12-03T05:27:04.773Z,99738.00
2022-12-03T05:28:36.989Z,99741.00
2022-12-03T05:30:11.588Z,99740.00
2022-12-03T05:31:44.723Z,99740.00
2022-12-03T05:33:16.972Z,99753.00
2022-12-03T05:34:50.075Z,99746.00
2022-12-03T05:36:25.503Z,99746.00
2022-12-03T05:37:58.724Z,99736.00
2022-12-03T05:39:32.145Z,99733.00
2022-12-03T05:41:26.753Z,99736.00
2022-12-03T05:43:01.147Z,99743.00
2022-12-03T05:44:33.395Z,99750.00
2022-12-03T05:46:06.973Z,99744.00
2022-12-03T05:47:39.170Z,99729.00
2022-12-03T05:49:12.530Z,99736.00
2022-12-03T05:50:46.798Z,99740.00
2022-12-03T05:52:22.477Z,99742.00
2022-12-03T05:53:55.674Z,99735.00
2022-12-03T05:55:29.848Z,99732.00
2022-12-03T05:57:04.090Z,99740.00
2022-12-03T05:58:37.274Z,99740.00
2022-12-03T06:00:15.771Z,99752.00
2022-12-03T06:01:49.058Z,99755.00
2022-12-03T06:03:22.339Z,99756.00
2022-12-03T06:04:55.896Z,99755.00
2022-12-03T06:06:29.246Z,99749.00
2022-12-03T06:08:03.992Z,99753.00
2022-12-03T06:09:36.176Z,99745.00
2022-12-03T06:11:09.403Z,99747.00
2022-12-03T06:12:42.286Z,99739.00
2022-12-03T06:14:15.436Z,99742.00
2022-12-03T06:15:48.665Z,99739.00
2022-12-03T06:17:21.199Z,99745.00
2022-12-03T06:18:54.469Z,99745.00
2022-12-03T06:20:27.727Z,99750.00
2022-12-03T06:22:01.105Z,99743.00
2022-12-03T06:23:35.830Z,99745.00
2022-12-03T06:25:09.201Z,99752.00
2022-12-03T06:26:42.329Z,99744.00
2022-12-03T06:28:15.570Z,99742.00
2022-12-03T06:29:47.903Z,99744.00
2022-12-03T06:31:21.112Z,99746.00
2022-12-03T06:32:54.365Z,99739.00
2022-12-03T06:34:26.638Z,99735.00
2022-12-03T06:35:59.885Z,99744.00
2022-12-03T06:37:34.042Z,99742.00
2022-12-03T06:39:08.546Z,99741.00
2022-12-03T06:40:41.647Z,99731.00
2022-12-03T06:42:14.764Z,99745.00
2022-12-03T06:43:47.059Z,99744.00
2022-12-03T06:45:20.357Z,99740.00
2022-12-03T06:46:53.582Z,99751.00
2022-12-03T06:48:26.770Z,99740.00
2022-12-03T06:49:59.955Z,99736.00
2022-12-03T06:51:33.195Z,99748.00
2022-12-03T06:53:06.327Z,99753.00
2022-12-03T06:54:40.880Z,99751.00
2022-12-03T06:56:14.065Z,99748.00
2022-12-03T06:57:47.231Z,99745.00
2022-12-03T06:59:20.369Z,99747.00
2022-12-03T07:00:53.549Z,99746.00
2022-12-03T07:02:26.800Z,99751.00
2022-12-03T07:04:00.262Z,99743.00
2022-12-03T07:05:33.420Z,99757.00
2022-12-03T07:07:06.740Z,99754.00
2022-12-03T07:08:40.004Z,99748.00
2022-12-03T07:10:14.847Z,99750.00
2022-12-03T07:11:48.232Z,99747.00
2022-12-03T07:13:21.723Z,99750.00
2022-12-03T07:14:55.500Z,99759.00
2022-12-03T07:16:30.085Z,99762.00
2022-12-03T07:18:04.545Z,99755.00
2022-12-03T07:19:37.812Z,99752.00
2022-12-03T07:21:10.997Z,99756.00
2022-12-03T07:22:44.227Z,99757.00
2022-12-03T07:24:17.666Z,99753.00
2022-12-03T07:25:52.345Z,99755.00
2022-12-03T07:27:25.465Z,99759.00
2022-12-03T07:28:58.755Z,99770.00
2022-12-03T07:30:31.914Z,99762.00
2022-12-03T07:32:05.618Z,99766.00
2022-12-03T07:33:38.754Z,99763.00
2022-12-03T07:35:11.908Z,99758.00
2022-12-03T07:36:45.111Z,99761.00
2022-12-03T07:38:18.452Z,99753.00
2022-12-03T07:39:52.297Z,99752.00
2022-12-03T07:41:26.782Z,99758.00
2022-12-03T07:43:00.032Z,99747.00
2022-12-03T07:44:33.296Z,99750.00
2022-12-03T07:46:07.161Z,99746.00
2022-12-03T07:47:40.294Z,99755.00
2022-12-03T07:49:13.576Z,99748.00
2022-12-03T07:50:46.737Z,99754.00
2022-12-03T07:52:20.021Z,99758.00
2022-12-03T07:53:53.274Z,99739.00
2022-12-03T07:55:26.602Z,99756.00
2022-12-03T07:57:02.244Z,99739.00
2022-12-03T07:58:35.743Z,99752.00
2022-12-03T08:00:11.187Z,99751.00
2022-12-03T08:01:44.452Z,99753.00
2022-12-03T08:03:17.637Z,99744.00
2022-12-03T08:04:52.676Z,99746.00
2022-12-03T08:06:26.072Z,99749.00
2022-12-03T08:07:59.447Z,99748.00
2022-12-03T08:09:32.764Z,99743.00
2022-12-03T08:11:06.904Z,99745.00
2022-12-03T08:12:41.565Z,99744.00
2022-12-03T08:14:17.695Z,99746.00
2022-12-03T08:15:50.805Z,99745.00
2022-12-03T08:17:25.267Z,99746.00
2022-12-03T08:18:58.765Z,99736.00
2022-12-03T08:20:38.449Z,99742.00
2022-12-03T08:22:15.075Z,99738.00
2022-12-03T08:23:48.677Z,99745.00
2022-12-03T08:25:24.113Z,99730.00
2022-12-03T08:26:58.530Z,99736.00
2022-12-03T08:28:33.283Z,99742.00
2022-12-03T08:30:08.680Z,99740.00
2022-12-03T08:31:42.783Z,99743.00
2022-12-03T08:33:27.697Z,99746.00
2022-12-03T08:35:03.157Z,99752.00
2022-12-03T08:36:36.679Z,99749.00
2022-12-03T08:38:13.577Z,99740.00
2022-12-03T08:39:49.343Z,99750.00
2022-12-03T08:41:37.888Z,99752.00
2022-12-03T08:43:19.604Z,99749.00
2022-12-03T08:44:55.257Z,99742.00
2022-12-03T08:46:28.840Z,99737.00
2022-12-03T08:48:19.107Z,99733.00
2022-12-03T08:49:57.952Z,99733.00
2022-12-03T08:51:31.345Z,99735.00
2022-12-03T08:53:25.711Z,99734.00
2022-12-03T08:54:59.582Z,99740.00
2022-12-03T08:56:37.765Z,99733.00
2022-12-03T08:58:23.206Z,99734.00
2022-12-03T09:00:01.918Z,99731.00
2022-12-03T09:01:42.640Z,99734.00
2022-12-03T09:03:20.167Z,99736.00
2022-12-03T09:04:56.952Z,99746.00
2022-12-03T09:06:30.086Z,99744.00
2022-12-03T09:08:03.379Z,99720.00
2022-12-03T09:09:36.660Z,99738.00
2022-12-03T09:11:10.019Z,99733.00
2022-12-03T09:12:43.280Z,99729.00
2022-12-03T09:14:21.032Z,99718.00
2022-12-03T09:15:55.609Z,99729.00
2022-12-03T09:17:29.370Z,99723.00
2022-12-03T09:19:03.152Z,99727.00
2022-12-03T09:20:36.495Z,99725.00
2022-12-03T09:22:09.810Z,99722.00
2022-12-03T09:23:42.958Z,99740.00
2022-12-03T09:25:16.932Z,99735.00
2022-12-03T09:26:51.284Z,99741.00
2022-12-03T09:28:24.602Z,99741.00
2022-12-03T09:29:57.856Z,99755.00
2022-12-03T09:31:34.324Z,99736.00
2022-12-03T09:33:07.542Z,99744.00
2022-12-03T09:34:42.322Z,99732.00
2022-12-03T09:36:15.772Z,99734.00
2022-12-03T09:37:49.047Z,99732.00
2022-12-03T09:39:22.372Z,99736.00
2022-12-03T09:40:55.724Z,99730.00
2022-12-03T09:42:29.328Z,99728.00
2022-12-03T09:44:05.312Z,99732.00
2022-12-03T09:45:39.061Z,99718.00
2022-12-03T09:47:13.819Z,99734.00
2022-12-03T09:48:47.522Z,99728.00
2022-12-03T09:50:26.280Z,99734.00
2022-12-03T09:52:03.428Z,99730.00
2022-12-03T09:53:41.042Z,99724.00
2022-12-03T09:55:21.717Z,99735.00
2022-12-03T09:56:57.651Z,99728.00
2022-12-03T09:58:34.735Z,99721.00
2022-12-03T10:00:18.552Z,99723.00
2022-12-03T10:01:53.234Z,99715.00
2022-12-03T10:03:33.765Z,99719.00
2022-12-03T10:05:07.538Z,99716.00
2022-12-03T10:06:45.781Z,99719.00
2022-12-03T10:08:26.037Z,99718.00
2022-12-03T10:10:01.589Z,99714.00
2022-12-03T10:11:36.689Z,99710.00
2022-12-03T10:13:25.424Z,99705.00
2022-12-03T10:15:01.065Z,99705.00
2022-12-03T10:16:36.900Z,99704.00
2022-12-03T10:18:20.266Z,99699.00
2022-12-03T10:19:55.166Z,99706.00
2022-12-03T10:21:36.858Z,99704.00
2022-12-03T10:23:10.200Z,99704.00
2022-12-03T10:24:44.711Z,99703.00
2022-12-03T10:26:18.350Z,99700.00
2022-12-03T10:27:59.690Z,99702.00
2022-12-03T10:29:35.783Z,99702.00
2022-12-03T10:31:12.265Z,99707.00
2022-12-03T10:32:47.892Z,99696.00
2022-12-03T10:34:26.603Z,99696.00
2022-12-03T10:36:21.320Z,99692.00
2022-12-03T10:38:01.720Z,99686.00
2022-12-03T10:39:56.364Z,99682.00
2022-12-03T10:41:30.150Z,99688.00
2022-12-03T10:43:21.703Z,99685.00
2022-12-03T10:45:19.750Z,99671.00
2022-12-03T10:47:08.057Z,99671.00
2022-12-03T10:48:41.691Z,99673.00
2022-12-03T10:50:22.040Z,99669.00
2022-12-03T10:51:56.819Z,99669.00
2022-12-03T10:53:34.379Z,99673.00
2022-12-03T10:55:11.891Z,99662.00
2022-12-03T10:56:47.827Z,99655.00
2022-12-03T10:58:25.752Z,99647.00
2022-12-03T10:59:59.532Z,99658.00
2022-12-03T11:01:33.439Z,99655.00
2022-12-03T11:03:20.333Z,99644.00
2022-12-03T11:04:54.750Z,99654.00
2022-12-03T11:06:31.734Z,99642.00
2022-12-03T11:08:06.896Z,99648.00
2022-12-03T11:09:43.601Z,99640.00
2022-12-03T11:11:21.281Z,99635.00
2022-12-03T11:13:39.750Z,99641.00
2022-12-03T11:15:17.510Z,99643.00
2022-12-03T11:17:09.814Z,99638.00
2022-12-03T11:18:59.801Z,99643.00
2022-12-03T11:21:08.811Z,99643.00
2022-12-03T11:22:45.290Z,99640.00
2022-12-03T11:24:21.952Z,99639.00
2022-12-03T11:25:55.123Z,99640.00
2022-12-03T11:27:28.486Z,99636.00
2022-12-03T11:29:01.832Z,99641.00
2022-12-03T11:31:02.209Z,99639.00
2022-12-03T11:33:06.998Z,99639.00
2022-12-03T11:34:43.602Z,99632.00
2022-12-03T11:36:31.554Z,99639.00
2022-12-03T11:38:52.243Z,99634.00
2022-12-03T11:40:36.124Z,99633.00
2022-12-03T11:42:39.654Z,99632.00
2022-12-03T11:44:33.607Z,99630.00
2022-12-03T11:46:11.091Z,99631.00
2022-12-03T11:47:48.727Z,99631.00
2022-12-03T11:49:39.049Z,99621.00
2022-12-03T11:51:16.651Z,99627.00
2022-12-03T11:52:55.690Z,99624.00
2022-12-03T11:54:29.377Z,99623.00
2022-12-03T11:56:09.990Z,99622.00
2022-12-03T11:57:44.149Z,99614.00
2022-12-03T11:59:19.168Z,99610.00
2022-12-03T12:00:55.176Z,99607.00
2022-12-03T12:02:28.338Z,99608.00
2022-12-03T12:04:01.785Z,99612.00
2022-12-03T12:05:35.522Z,99604.00
2022-12-03T12:07:08.648Z,99606.00
2022-12-03T12:08:56.344Z,99600.00
2022-12-03T12:10:45.204Z,99601.00
2022-12-03T12:12:40.911Z,99598.00
2022-12-03T12:14:14.901Z,99592.00
2022-12-03T12:15:48.490Z,99591.00
2022-12-03T12:17:37.056Z,99588.00
2022-12-03T12:19:35.373Z,99586.00
2022-12-03T12:21:40.735Z,99589.00
2022-12-03T12:23:29.638Z,99591.00
2022-12-03T12:25:05.047Z,99586.00
2022-12-03T12:26:38.244Z,99586.00
2022-12-03T12:28:12.737Z,99581.00
2022-12-03T12:29:52.879Z,99585.00
2022-12-03T12:31:27.525Z,99577.00
2022-12-03T12:33:15.247Z,99578.00
2022-12-03T12:34:52.419Z,99572.00
2022-12-03T12:36:25.624Z,99575.00
2022-12-03T12:38:15.994Z,99571.00
2022-12-03T12:39:49.851Z,99570.00
2022-12-03T12:41:23.733Z,99575.00
2022-12-03T12:42:59.335Z,99568.00
2022-12-03T12:44:34.275Z,99570.00
2022-12-03T12:46:46.063Z,99562.00
2022-12-03T12:48:21.929Z,99567.00
2022-12-03T12:49:57.226Z,99567.00
2022-12-03T12:51:30.951Z,99556.00
2022-12-03T12:53:16.814Z,99566.00
2022-12-03T12:54:50.056Z,99567.00
2022-12-03T12:56:27.201Z,99567.00
2022-12-03T12:58:08.868Z,99557.00
2022-12-03T12:59:49.384Z,99555.00
2022-12-03T13:01:35.594Z,99544.00
2022-12-03T13:03:11.729Z,99547.00
2022-12-03T13:04:57.401Z,99555.00
2022-12-03T13:06:33.353Z,99556.00
2022-12-03T13:08:31.144Z,99565.00
2022-12-03T13:10:37.173Z,99556.00
2022-12-03T13:12:22.091Z,99557.00
2022-12-03T13:13:55.343Z,99565.00
2022-12-03T13:15:42.774Z,99560.00
2022-12-03T13:17:24.266Z,99547.00
2022-12-03T13:18:59.672Z,99553.00
2022-12-03T13:20:32.996Z,99537.00
2022-12-03T13:22:17.096Z,99541.00
2022-12-03T13:23:53.661Z,99552.00
2022-12-03T13:26:00.296Z,99546.00
2022-12-03T13:27:31.780Z,99540.00
2022-12-03T13:29:14.800Z,99536.00
2022-12-03T13:30:49.322Z,99540.00
2022-12-03T13:32:30.716Z,99540.00
2022-12-03T13:34:15.173Z,99538.00
2022-12-03T13:35:48.492Z,99533.00
2022-12-03T13:37:26.229Z,99537.00
2022-12-03T13:39:00.101Z,99541.00
2022-12-03T13:40:35.312Z,99544.00
2022-12-03T13:42:38.677Z,99538.00
2022-12-03T13:44:19.758Z,99527.00
2022-12-03T13:45:55.345Z,99530.00
2022-12-03T13:47:29.137Z,99526.00
2022-12-03T13:49:02.715Z,99529.00
2022-12-03T13:50:39.331Z,99525.00
2022-12-03T13:52:18.093Z,99523.00
2022-12-03T13:53:57.907Z,99518.00
2022-12-03T13:55:36.038Z,99526.00
2022-12-03T13:57:18.409Z,99515.00
2022-12-03T13:58:55.250Z,99516.00
2022-12-03T14:00:28.608Z,99514.00
2022-12-03T14:02:03.214Z,99521.00
2022-12-03T14:03:36.593Z,99516.00
2022-12-03T14:05:10.925Z,99515.00
2022-12-03T14:06:44.104Z,99508.00
2022-12-03T14:08:17.358Z,99510.00
2022-12-03T14:09:50.815Z,99505.00
2022-12-03T14:11:41.604Z,99518.00
2022-12-03T14:13:14.922Z,99514.00
2022-12-03T14:14:48.206Z,99505.00
2022-12-03T14:16:21.432Z,99513.00
2022-12-03T14:17:56.040Z,99503.00
2022-12-03T14:19:29.222Z,99509.00
2022-12-03T14:21:02.385Z,99502.00
2022-12-03T14:22:37.853Z,99511.00
2022-12-03T14:24:11.283Z,99510.00
2022-12-03T14:25:44.747Z,99496.00
2022-12-03T14:27:17.969Z,99498.00
2022-12-03T14:28:51.223Z,99504.00
2022-12-03T14:30:24.478Z,99501.00
2022-12-03T14:31:57.987Z,99511.00
2022-12-03T14:33:32.623Z,99506.00
2022-12-03T14:35:10.043Z,99507.00
2022-12-03T14:36:44.151Z,99506.00
2022-12-03T14:38:17.268Z,99510.00
2022-12-03T14:39:50.625Z,99500.00
2022-12-03T14:41:41.765Z,99499.00
2022-12-03T14:43:15.087Z,99504.00
2022-12-03T14:44:51.245Z,99505.00
2022-12-03T14:46:25.104Z,99507.00
2022-12-03T14:48:00.241Z,99513.00
2022-12-03T14:49:35.164Z,99511.00
2022-12-03T14:51:08.314Z,99497.00
2022-12-03T14:52:41.783Z,99502.00
2022-12-03T14:54:14.986Z,99504.00
2022-12-03T14:55:48.252Z,99505.00
2022-12-03T14:57:22.462Z,99511.00
2022-12-03T14:58:55.663Z,99516.00
2022-12-03T15:00:28.921Z,99516.00
2022-12-03T15:02:02.190Z,99519.00
2022-12-03T15:03:35.583Z,99513.00
2022-12-03T15:05:10.621Z,99510.00
2022-12-03T15:06:43.674Z,99511.00
2022-12-03T15:08:16.833Z,99505.00
2022-12-03T15:09:50.041Z,99508.00
2022-12-03T15:11:23.227Z,99503.00
2022-12-03T15:12:56.430Z,99504.00
2022-12-03T15:14:29.884Z,99501.00
2022-12-03T15:16:03.272Z,99515.00
2022-12-03T15:17:36.446Z,99494.00
2022-12-03T15:19:10.018Z,99507.00
2022-12-03T15:20:45.593Z,99503.00
2022-12-03T15:22:18.741Z,99506.00
2022-12-03T15:23:52.022Z,99505.00
2022-12-03T15:25:25.688Z,99509.00
2022-12-03T15:27:02.042Z,99502.00
2022-12-03T15:28:35.614Z,99512.00
2022-12-03T15:30:10.454Z,99506.00
2022-12-03T15:31:46.303Z,99502.00
2022-12-03T15:33:19.579Z,99517.00
2022-12-03T15:35:37.568Z,99509.00
2022-12-03T15:37:14.809Z,99511.00
2022-12-03T15:38:48.133Z,99505.00
2022-12-03T15:40:21.421Z,99512.00
2022-12-03T15:41:54.971Z,99505.00
2022-12-03T15:43:28.161Z,99515.00
2022-12-03T15:45:01.565Z,99505.00
2022-12-03T15:46:35.063Z,99524.00
2022-12-03T15:48:10.631Z,99511.00
2022-12-03T15:49:44.967Z,99507.00
2022-12-03T15:51:18.352Z,99504.00
2022-12-03T15:52:52.895Z,99510.00
2022-12-03T15:54:26.167Z,99510.00
2022-12-03T15:55:59.484Z,99509.00
2022-12-03T15:57:32.722Z,99507.00
2022-12-03T15:59:05.893Z,99513.00
2022-12-03T16:00:39.213Z,99514.00
2022-12-03T16:02:12.475Z,99511.00
2022-12-03T16:03:45.811Z,99490.00
2022-12-03T16:05:19.206Z,99513.00
2022-12-03T16:06:53.555Z,99506.00
2022-12-03T16:08:28.149Z,99519.00
2022-12-03T16:10:01.977Z,99513.00
2022-12-03T16:11:35.719Z,99504.00
2022-12-03T16:13:08.913Z,99507.00
2022-12-03T16:14:42.329Z,99502.00
2022-12-03T16:16:15.608Z,99518.00
2022-12-03T16:17:48.958Z,99507.00
2022-12-03T16:19:22.255Z,99509.00
2022-12-03T16:20:55.645Z,99511.00
2022-12-03T16:22:28.839Z,99503.00
2022-12-03T16:24:03.799Z,99509.00
2022-12-03T16:25:37.200Z,99508.00
2022-12-03T16:27:10.356Z,99515.00
2022-12-03T16:28:43.574Z,99513.00
2022-12-03T16:30:17.893Z,99513.00
2022-12-03T16:31:51.111Z,99513.00
2022-12-03T16:33:27.894Z,99505.00
2022-12-03T16:35:01.630Z,99513.00
2022-12-03T16:36:34.925Z,99507.00
2022-12-03T16:38:10.260Z,99516.00
2022-12-03T16:39:45.061Z,99514.00
2022-12-03T16:41:19.282Z,99512.00
2022-12-03T16:42:52.542Z,99504.00
2022-12-03T16:44:54.208Z,99505.00
2022-12-03T16:46:27.535Z,99502.00
2022-12-03T16:48:02.664Z,99503.00
2022-12-03T16:49:36.734Z,99497.00
2022-12-03T16:51:10.252Z,99503.00
2022-12-03T16:52:43.477Z,99505.00
2022-12-03T16:54:16.672Z,99494.00
2022-12-03T16:55:51.353Z,99508.00
2022-12-03T16:57:28.918Z,99505.00
2022-12-03T16:59:05.297Z,99514.00
2022-12-03T17:00:38.464Z,99514.00
2022-12-03T17:02:13.596Z,99508.00
2022-12-03T17:03:46.946Z,99499.00
2022-12-03T17:05:20.159Z,99506.00
2022-12-03T17:06:53.286Z,99499.00
2022-12-03T17:08:26.493Z,99496.00
2022-12-03T17:10:01.147Z,99500.00
2022-12-03T17:11:35.743Z,99495.00
2022-12-03T17:13:10.390Z,99495.00
2022-12-03T17:14:43.780Z,99499.00
2022-12-03T17:16:17.088Z,99494.00
2022-12-03T17:17:50.344Z,99497.00
2022-12-03T17:19:24.626Z,99508.00
2022-12-03T17:20:57.800Z,99509.00
2022-12-03T17:22:31.090Z,99503.00
2022-12-03T17:24:04.472Z,99500.00
2022-12-03T17:25:37.685Z,99501.00
2022-12-03T17:27:13.498Z,99506.00
2022-12-03T17:28:47.279Z,99501.00
2022-12-03T17:30:20.663Z,99498.00
2022-12-03T17:31:54.031Z,99498.00
2022-12-03T17:33:27.201Z,99490.00
2022-12-03T17:35:00.789Z,99499.00
2022-12-03T17:36:36.744Z,99490.00
2022-12-03T17:38:11.302Z,99495.00
2022-12-03T17:39:44.628Z,99487.00
2022-12-03T17:41:18.069Z,99488.00
2022-12-03T17:43:02.681Z,99481.00
2022-12-03T17:44:35.794Z,99481.00
2022-12-03T17:46:09.051Z,99481.00
2022-12-03T17:47:42.350Z,99474.00
2022-12-03T17:49:15.542Z,99486.00
2022-12-03T17:50:50.095Z,99485.00
2022-12-03T17:52:23.414Z,99487.00
2022-12-03T17:53:56.594Z,99480.00
2022-12-03T17:55:38.298Z,99480.00
2022-12-03T17:57:15.351Z,99480.00
2022-12-03T17:58:50.952Z,99476.00
2022-12-03T18:00:24.484Z,99485.00
2022-12-03T18:01:57.749Z,99481.00
2022-12-03T18:03:31.271Z,99483.00
2022-12-03T18:05:04.731Z,99486.00
2022-12-03T18:06:38.450Z,99480.00
2022-12-03T18:08:11.856Z,99478.00
2022-12-03T18:09:45.101Z,99476.00
2022-12-03T18:11:19.551Z,99481.00
2022-12-03T18:12:55.884Z,99474.00
2022-12-03T18:14:34.577Z,99477.00
2022-12-03T18:16:08.740Z,99480.00
2022-12-03T18:17:42.398Z,99475.00
2022-12-03T18:19:15.715Z,99476.00
2022-12-03T18:20:50.606Z,99481.00
2022-12-03T18:22:24.123Z,99471.00
2022-12-03T18:24:00.198Z,99475.00
2022-12-03T18:25:33.576Z,99469.00
2022-12-03T18:27:06.851Z,99479.00
2022-12-03T18:28:42.073Z,99467.00
2022-12-03T18:30:17.175Z,99474.00
2022-12-03T18:31:50.499Z,99461.00
2022-12-03T18:33:23.964Z,99467.00
2022-12-03T18:34:57.498Z,99464.00
2022-12-03T18:36:37.076Z,99458.00
2022-12-03T18:38:12.890Z,99466.00
2022-12-03T18:39:48.208Z,99469.00
2022-12-03T18:41:23.117Z,99457.00
2022-12-03T18:42:57.643Z,99460.00
2022-12-03T18:44:30.831Z,99469.00
2022-12-03T18:46:31.245Z,99465.00
2022-12-03T18:48:13.594Z,99467.00
2022-12-03T18:49:47.778Z,99463.00